Terminal Aerodrome Forecast
Issued by NWS

Current Version | Previous Version | Text Only | Print | Product List | Glossary Off
Versions: 1 2 3 4 5 6 7 8 9 10 11 12 13 14 15 16 17 18

000
FTUS41 KILN 291138
TAFLCK
TAF
KLCK 291138Z 2912/3012 00000KT P6SM SCT060 BKN200
     FM291400 18005KT P6SM SCT045 BKN200
      TEMPO 2918/2922 21007KT BKN040 OVC200
     FM292200 13003KT P6SM VCSH SCT050 OVC150=

USA.gov is the U.S. government's official web portal to all federal, state and local government web resources and services.